Time;durP1;ratioP1;P1;durP2;ratioP2;P2;SDS_P1;SDS_P2;PMS_P1;PMS_P2;Temp;Humidity;BMP_temperature;BMP_pressure;BME280_temperature;BME280_humidity;BME280_pressure;Samples;Min_cycle;Max_cycle;Signal;HPM_P1;HPM_P2
2021/06/27 00:01:18;;;;;;;;;;;;;;;22.89;55.18;99256.69;5072144;28;795;-66
2021/06/27 00:03:44;;;;;;;;;;;;;;;22.63;57.17;99261.09;5072320;28;913;-66
2021/06/27 00:06:11;;;;;;;;;;;;;;;22.35;60.68;99268.53;5072037;28;842;-66
2021/06/27 00:08:38;;;;;;;;;;;;;;;22.11;61.78;99263.13;5072042;28;858;-66
2021/06/27 00:11:08;;;;;;;;;;;;;;;21.92;65.81;99271.13;5071922;28;1885;-66
2021/06/27 00:13:36;;;;;;;;;;;;;;;21.78;67.00;99276.31;5072266;28;918;-66
2021/06/27 00:16:03;;;;;;;;;;;;;;;21.67;66.78;99279.00;5071709;28;819;-66
2021/06/27 00:18:29;;;;;;;;;;;;;;;21.47;63.02;99287.44;5071861;28;852;-67
2021/06/27 00:20:58;;;;;;;;;;;;;;;21.35;61.91;99286.44;5071677;28;1268;-67
2021/06/27 00:23:26;;;;;;;;;;;;;;;21.49;64.94;99293.34;5071726;28;858;-66
2021/06/27 00:25:53;;;;;;;;;;;;;;;21.67;63.49;99283.84;5071727;28;835;-66
2021/06/27 00:28:20;;;;;;;;;;;;;;;21.85;61.20;99291.22;5071813;28;834;-65
2021/06/27 00:30:48;;;;;;;;;;;;;;;21.96;61.58;99288.56;5053710;28;1945;-65
2021/06/27 00:33:14;;;;;;;;;;;;;;;21.99;61.75;99285.50;5071721;28;842;-66
2021/06/27 00:35:41;;;;;;;;;;;;;;;21.96;60.96;99294.19;5071636;28;858;-65
2021/06/27 00:38:07;;;;;;;;;;;;;;;21.82;59.96;99298.59;5071583;28;834;-65
2021/06/27 00:40:35;;;;;;;;;;;;;;;21.54;59.77;99320.75;5071648;28;799;-65
2021/06/27 00:43:02;;;;;;;;;;;;;;;21.25;60.74;99330.78;5071563;28;893;-63
2021/06/27 00:45:30;;;;;;;;;;;;;;;20.99;62.49;99331.41;5071562;28;945;-65
2021/06/27 00:47:59;;;;;;;;;;;;;;;20.66;64.72;99325.97;5071561;28;838;-64
2021/06/27 00:50:27;;;;;;;;;;;;;;;20.39;66.26;99310.91;5071478;28;1886;-64
2021/06/27 00:52:53;;;;;;;;;;;;;;;20.15;68.19;99307.41;5071400;28;874;-65
2021/06/27 00:55:20;;;;;;;;;;;;;;;19.90;69.39;99306.66;5071458;28;890;-64
2021/06/27 00:57:48;;;;;;;;;;;;;;;19.64;70.84;99303.53;5071450;28;818;-64
2021/06/27 01:00:16;;;;;;;;;;;;;;;19.37;72.21;99301.66;5053477;28;1199;-64
2021/06/27 01:02:43;;;;;;;;;;;;;;;19.16;73.03;99309.06;5071392;28;853;-64
2021/06/27 01:05:12;;;;;;;;;;;;;;;18.98;74.16;99309.94;5071427;28;858;-64
2021/06/27 01:07:38;;;;;;;;;;;;;;;18.83;75.12;99307.03;5071295;28;862;-64
2021/06/27 01:10:05;;;;;;;;;;;;;;;18.70;75.63;99307.19;5071394;28;1939;-64
2021/06/27 01:12:32;;;;;;;;;;;;;;;18.56;76.51;99302.25;5071619;28;990;-64
2021/06/27 01:14:59;;;;;;;;;;;;;;;18.44;77.07;99308.81;5071206;28;864;-65
2021/06/27 01:17:26;;;;;;;;;;;;;;;18.28;77.98;99312.69;5071190;28;802;-64
2021/06/27 01:19:53;;;;;;;;;;;;;;;18.12;78.39;99320.16;5070948;28;1224;-64
2021/06/27 01:22:20;;;;;;;;;;;;;;;17.98;79.20;99320.00;5071107;28;838;-64
2021/06/27 01:24:46;;;;;;;;;;;;;;;17.81;79.91;99317.47;5071155;28;889;-64
2021/06/27 01:27:13;;;;;;;;;;;;;;;17.68;80.41;99314.03;5073674;28;811;-64
2021/06/27 01:29:39;;;;;;;;;;;;;;;17.59;81.09;99314.03;5074989;28;1973;-64
2021/06/27 01:32:10;;;;;;;;;;;;;;;17.52;81.40;99315.88;5074958;28;831;-64
2021/06/27 01:34:39;;;;;;;;;;;;;;;17.48;81.47;99320.06;5074918;28;862;-64
2021/06/27 01:37:06;;;;;;;;;;;;;;;17.46;81.49;99322.53;5074868;28;814;-64
2021/06/27 01:39:33;;;;;;;;;;;;;;;17.45;81.54;99323.75;5074839;28;858;-64
2021/06/27 01:42:00;;;;;;;;;;;;;;;17.41;81.61;99323.13;5075127;28;806;-64
2021/06/27 01:44:26;;;;;;;;;;;;;;;17.40;81.38;99330.75;5074863;28;830;-64
2021/06/27 01:46:55;;;;;;;;;;;;;;;17.38;81.69;99341.59;5074768;28;794;-64
2021/06/27 01:49:22;;;;;;;;;;;;;;;17.52;78.66;99345.84;5075192;28;1886;-64
2021/06/27 01:51:48;;;;;;;;;;;;;;;18.38;72.94;99350.63;5073470;28;1315;-65
2021/06/27 01:54:15;;;;;;;;;;;;;;;19.15;69.53;99347.53;5074830;28;810;-65
2021/06/27 01:56:41;;;;;;;;;;;;;;;19.48;69.50;99348.78;5074492;28;846;-64
2021/06/27 01:59:09;;;;;;;;;;;;;;;19.54;69.79;99355.28;5074484;28;880;-65
2021/06/27 02:01:37;;;;;;;;;;;;;;;19.50;70.11;99354.69;5074455;28;877;-65
2021/06/27 02:04:05;;;;;;;;;;;;;;;19.28;72.08;99361.31;5075085;28;818;-65
2021/06/27 02:06:34;;;;;;;;;;;;;;;18.94;72.82;99357.69;5074549;28;877;-65
2021/06/27 02:09:03;;;;;;;;;;;;;;;18.66;74.00;99359.75;5074370;28;870;-64
2021/06/27 02:11:29;;;;;;;;;;;;;;;18.43;75.51;99363.22;5074165;28;1930;-64
2021/06/27 02:13:57;;;;;;;;;;;;;;;18.34;76.20;99352.81;5074623;28;1016;-65
2021/06/27 02:16:24;;;;;;;;;;;;;;;18.34;76.71;99372.38;5074226;28;802;-66
2021/06/27 02:18:50;;;;;;;;;;;;;;;18.41;77.08;99369.25;5074098;28;859;-65
2021/06/27 02:21:19;;;;;;;;;;;;;;;18.49;77.02;99372.53;5034210;28;920;-65
2021/06/27 02:23:46;;;;;;;;;;;;;;;18.55;77.10;99373.47;5034118;28;850;-65
2021/06/27 02:26:11;;;;;;;;;;;;;;;18.48;76.35;99380.16;5034112;28;835;-64
2021/06/27 02:28:38;;;;;;;;;;;;;;;18.46;76.58;99379.84;5034050;28;798;-65
2021/06/27 02:31:04;;;;;;;;;;;;;;;18.51;76.65;99378.44;5034036;28;1985;-65
2021/06/27 02:33:30;;;;;;;;;;;;;;;18.71;74.76;99378.75;5033997;28;865;-65
2021/06/27 02:35:57;;;;;;;;;;;;;;;19.23;70.66;99369.63;5049396;28;1541;-64
2021/06/27 02:38:24;;;;;;;;;;;;;;;19.79;66.44;99384.94;5033958;28;865;-64
2021/06/27 02:40:51;;;;;;;;;;;;;;;20.24;66.47;99383.06;5033991;28;857;-65
2021/06/27 02:43:18;;;;;;;;;;;;;;;19.92;69.56;99387.50;5033977;28;877;-65
2021/06/27 02:45:46;;;;;;;;;;;;;;;19.36;72.26;99396.16;5034306;28;940;-64
2021/06/27 02:48:12;;;;;;;;;;;;;;;18.98;74.08;99399.56;5033787;28;1070;-66
2021/06/27 02:50:40;;;;;;;;;;;;;;;18.80;75.34;99394.78;5033571;28;2234;-65
2021/06/27 02:53:07;;;;;;;;;;;;;;;18.71;75.82;99394.75;5033643;28;846;-65
2021/06/27 02:55:34;;;;;;;;;;;;;;;18.70;76.12;99399.56;5033501;28;807;-65
2021/06/27 02:58:01;;;;;;;;;;;;;;;18.69;76.34;99408.44;5033573;28;826;-65
2021/06/27 03:00:31;;;;;;;;;;;;;;;18.65;76.56;99419.00;5032233;28;1374;-65
2021/06/27 03:02:58;;;;;;;;;;;;;;;18.60;76.64;99428.81;5033439;28;846;-65
2021/06/27 03:05:25;;;;;;;;;;;;;;;18.59;76.75;99440.47;5033346;28;881;-65
2021/06/27 03:07:50;;;;;;;;;;;;;;;18.59;76.75;99441.25;5033559;28;811;-64
2021/06/27 03:10:18;;;;;;;;;;;;;;;18.61;76.61;99449.19;5033198;28;1890;-64
2021/06/27 03:12:46;;;;;;;;;;;;;;;18.59;76.49;99449.66;5033512;28;998;-64
2021/06/27 03:15:14;;;;;;;;;;;;;;;18.60;76.38;99442.78;5033167;28;857;-64
2021/06/27 03:17:41;;;;;;;;;;;;;;;18.60;76.39;99436.44;5033199;28;940;-64
2021/06/27 03:20:09;;;;;;;;;;;;;;;18.57;76.48;99444.50;5053691;28;1212;-65
2021/06/27 03:22:36;;;;;;;;;;;;;;;18.53;76.82;99443.88;5072979;28;814;-65
2021/06/27 03:25:03;;;;;;;;;;;;;;;18.49;77.16;99439.69;5073086;28;827;-65
2021/06/27 03:27:30;;;;;;;;;;;;;;;18.45;77.36;99447.47;5072809;28;867;-65
2021/06/27 03:29:57;;;;;;;;;;;;;;;18.38;77.88;99450.56;5072666;28;1971;-65
2021/06/27 03:32:24;;;;;;;;;;;;;;;18.24;78.41;99435.16;5072710;28;810;-65
2021/06/27 03:34:51;;;;;;;;;;;;;;;18.13;78.77;99439.16;5072667;28;893;-65
2021/06/27 03:37:17;;;;;;;;;;;;;;;18.06;79.05;99445.06;5072655;28;889;-65
2021/06/27 03:39:44;;;;;;;;;;;;;;;18.02;79.17;99438.84;5072593;28;881;-65
2021/06/27 03:42:10;;;;;;;;;;;;;;;18.04;79.19;99447.56;5054511;28;1377;-65
2021/06/27 03:44:37;;;;;;;;;;;;;;;18.10;79.04;99448.50;5072519;28;881;-64
2021/06/27 03:47:04;;;;;;;;;;;;;;;18.41;78.24;99449.63;5071190;28;968;-65
2021/06/27 03:49:31;;;;;;;;;;;;;;;18.80;75.41;99444.38;5071790;28;1885;-64
2021/06/27 03:51:58;;;;;;;;;;;;;;;19.30;71.91;99450.53;5072630;28;834;-64
2021/06/27 03:54:24;;;;;;;;;;;;;;;19.70;70.02;99452.28;5072595;28;905;-66
2021/06/27 03:56:51;;;;;;;;;;;;;;;19.64;71.05;99451.34;5072276;28;814;-65
2021/06/27 03:59:17;;;;;;;;;;;;;;;19.44;71.80;99455.47;5072365;28;822;-66
2021/06/27 04:01:44;;;;;;;;;;;;;;;19.31;73.05;99446.44;5072152;28;902;-65
2021/06/27 04:04:10;;;;;;;;;;;;;;;19.57;71.27;99444.06;5072158;28;858;-65
2021/06/27 04:06:37;;;;;;;;;;;;;;;20.10;70.67;99448.31;5054216;28;1429;-65
2021/06/27 04:09:03;;;;;;;;;;;;;;;20.62;70.25;99443.31;5071944;28;803;-65
2021/06/27 04:11:30;;;;;;;;;;;;;;;21.01;69.43;99452.47;5072091;28;1898;-66
2021/06/27 04:13:57;;;;;;;;;;;;;;;21.33;69.52;99463.25;5072047;28;1011;-65
2021/06/27 04:16:23;;;;;;;;;;;;;;;21.49;70.03;99462.00;5072103;28;846;-66
2021/06/27 04:18:50;;;;;;;;;;;;;;;21.56;69.31;99461.59;5072107;28;795;-65
2021/06/27 04:21:17;;;;;;;;;;;;;;;21.73;69.33;99471.09;5071904;28;1227;-66
2021/06/27 04:23:43;;;;;;;;;;;;;;;22.05;68.77;99457.22;5072166;28;802;-66
2021/06/27 04:26:10;;;;;;;;;;;;;;;22.61;68.73;99457.19;5072055;28;1156;-66
2021/06/27 04:28:37;;;;;;;;;;;;;;;23.29;67.25;99455.09;5072083;28;783;-66
2021/06/27 04:31:03;;;;;;;;;;;;;;;23.90;63.61;99442.75;5071713;28;1967;-66
2021/06/27 04:33:29;;;;;;;;;;;;;;;24.25;62.19;99450.91;5071674;28;886;-66
2021/06/27 04:35:56;;;;;;;;;;;;;;;24.84;60.89;99450.13;5071689;28;827;-66
2021/06/27 04:38:24;;;;;;;;;;;;;;;25.59;59.30;99444.06;5071671;28;810;-66
2021/06/27 04:40:52;;;;;;;;;;;;;;;26.61;57.57;99438.94;5071614;28;889;-66
2021/06/27 04:43:18;;;;;;;;;;;;;;;27.39;55.17;99430.44;5072408;28;794;-65
2021/06/27 04:45:45;;;;;;;;;;;;;;;27.62;55.68;99443.13;5071578;28;877;-66
2021/06/27 04:48:12;;;;;;;;;;;;;;;27.40;55.30;99443.34;5071469;28;850;-65
2021/06/27 04:50:38;;;;;;;;;;;;;;;27.00;56.52;99442.81;5071394;28;1948;-65
2021/06/27 04:53:08;;;;;;;;;;;;;;;26.71;56.84;99442.22;5071474;28;818;-66
2021/06/27 04:55:35;;;;;;;;;;;;;;;26.36;57.75;99440.81;5071947;28;819;-66
2021/06/27 04:58:01;;;;;;;;;;;;;;;26.16;58.56;99429.81;5071656;28;842;-66
2021/06/27 05:00:29;;;;;;;;;;;;;;;25.93;57.99;99431.94;5072195;28;795;-66
2021/06/27 05:02:56;;;;;;;;;;;;;;;26.12;57.47;99440.63;5075352;28;831;-66
2021/06/27 05:05:24;;;;;;;;;;;;;;;26.32;55.69;99440.31;5075772;28;814;-66
2021/06/27 05:13:01;;;;;;;;;;;;;;;27.94;52.16;99453.97;5681580;22;1753;-67
2021/06/27 05:15:27;;;;;;;;;;;;;;;27.95;51.69;99461.16;5075442;28;880;-67
2021/06/27 05:17:54;;;;;;;;;;;;;;;28.18;51.48;99464.53;5075398;28;900;-67
2021/06/27 05:20:21;;;;;;;;;;;;;;;28.54;51.84;99470.09;5075305;28;884;-68
2021/06/27 05:22:48;;;;;;;;;;;;;;;28.91;49.99;99465.72;5075229;28;880;-68
2021/06/27 05:25:15;;;;;;;;;;;;;;;29.39;48.93;99458.28;5075235;28;845;-68
2021/06/27 05:27:40;;;;;;;;;;;;;;;29.70;47.28;99464.53;5075179;28;857;-69
2021/06/27 05:30:07;;;;;;;;;;;;;;;29.59;46.77;99476.09;5075117;28;1913;-69
2021/06/27 05:32:34;;;;;;;;;;;;;;;29.49;46.02;99458.66;5075342;28;841;-68
2021/06/27 05:35:00;;;;;;;;;;;;;;;29.65;45.78;99466.13;5074977;28;904;-69
2021/06/27 05:37:27;;;;;;;;;;;;;;;30.43;44.21;99468.88;5075025;28;873;-69
2021/06/27 05:39:54;;;;;;;;;;;;;;;31.22;43.59;99470.03;5074899;28;889;-69
2021/06/27 05:42:21;;;;;;;;;;;;;;;32.10;42.19;99476.13;5075014;28;880;-69
2021/06/27 05:44:47;;;;;;;;;;;;;;;32.73;41.46;99480.88;5075112;28;932;-70
2021/06/27 05:47:14;;;;;;;;;;;;;;;33.18;39.34;99482.41;5074796;28;861;-70
2021/06/27 05:49:41;;;;;;;;;;;;;;;33.66;39.73;99481.91;5074604;28;1956;-70
2021/06/27 05:52:07;;;;;;;;;;;;;;;33.94;38.92;99486.66;5074927;28;821;-69
2021/06/27 05:54:34;;;;;;;;;;;;;;;33.95;38.58;99488.94;5074596;28;782;-69
2021/06/27 05:57:00;;;;;;;;;;;;;;;33.63;37.29;99480.94;5074893;28;881;-69
2021/06/27 05:59:26;;;;;;;;;;;;;;;33.19;39.17;99481.03;5074700;28;822;-72
2021/06/27 06:01:52;;;;;;;;;;;;;;;33.29;39.42;99487.75;5074876;28;925;-71
2021/06/27 06:04:19;;;;;;;;;;;;;;;33.20;37.15;99479.69;5074904;28;853;-68
2021/06/27 06:06:45;;;;;;;;;;;;;;;32.77;37.61;99489.84;5074825;28;762;-71
2021/06/27 06:09:12;;;;;;;;;;;;;;;32.74;38.18;99491.75;5074414;28;826;-72
2021/06/27 06:11:39;;;;;;;;;;;;;;;33.40;38.21;99498.06;5074315;28;1943;-73
2021/06/27 06:14:05;;;;;;;;;;;;;;;34.31;36.68;99505.19;5073989;28;1373;-72
2021/06/27 06:16:32;;;;;;;;;;;;;;;34.41;35.56;99511.06;5074600;28;897;-72
2021/06/27 06:18:59;;;;;;;;;;;;;;;34.09;36.25;99520.28;5074111;28;865;-71
2021/06/27 06:21:25;;;;;;;;;;;;;;;34.01;36.32;99520.28;5074646;28;881;-72
2021/06/27 06:23:51;;;;;;;;;;;;;;;34.01;36.80;99519.50;5074246;28;825;-71
2021/06/27 06:26:18;;;;;;;;;;;;;;;34.55;36.72;99518.09;5074173;28;854;-71
2021/06/27 06:28:44;;;;;;;;;;;;;;;35.28;34.89;99523.19;5074126;28;846;-70
2021/06/27 06:31:11;;;;;;;;;;;;;;;35.23;34.15;99518.44;5074191;28;1906;-71
2021/06/27 06:33:37;;;;;;;;;;;;;;;34.92;35.01;99509.97;5074208;28;802;-72
2021/06/27 06:36:04;;;;;;;;;;;;;;;35.12;34.92;99508.16;5074315;28;823;-71
2021/06/27 06:38:31;;;;;;;;;;;;;;;35.43;34.38;99504.34;5073856;28;809;-72
2021/06/27 06:40:57;;;;;;;;;;;;;;;35.52;33.86;99501.56;5073878;28;836;-73
2021/06/27 06:43:24;;;;;;;;;;;;;;;35.54;34.46;99498.88;5073941;28;858;-73
2021/06/27 06:45:50;;;;;;;;;;;;;;;35.89;34.79;99496.16;5073758;28;930;-72
2021/06/27 06:48:16;;;;;;;;;;;;;;;36.07;34.09;99496.19;5073768;28;852;-72
2021/06/27 06:50:43;;;;;;;;;;;;;;;36.05;33.54;99490.25;5073682;28;1890;-72
2021/06/27 06:53:10;;;;;;;;;;;;;;;35.79;34.72;99492.41;5073712;28;857;-72
2021/06/27 06:55:37;;;;;;;;;;;;;;;35.65;34.09;99485.44;5073668;28;899;-72
2021/06/27 06:58:05;;;;;;;;;;;;;;;35.81;34.27;99491.81;5073905;28;881;-72
2021/06/27 07:00:32;;;;;;;;;;;;;;;35.98;34.58;99492.59;5072174;28;1369;-72
2021/06/27 07:02:59;;;;;;;;;;;;;;;36.02;34.67;99492.19;5073655;28;848;-73
2021/06/27 07:05:25;;;;;;;;;;;;;;;36.25;33.18;99494.09;5073450;28;803;-71
2021/06/27 07:07:51;;;;;;;;;;;;;;;36.66;33.85;99501.16;5089057;28;1203;-69
2021/06/27 07:10:19;;;;;;;;;;;;;;;36.28;32.14;99496.56;5088732;28;1955;-72
2021/06/27 07:12:46;;;;;;;;;;;;;;;36.18;33.18;99510.09;5073178;28;1201;-72
2021/06/27 07:15:13;;;;;;;;;;;;;;;36.06;31.83;99509.81;5073325;28;833;-71
2021/06/27 07:17:40;;;;;;;;;;;;;;;35.98;32.71;99501.22;5073225;28;856;-72
2021/06/27 07:20:08;;;;;;;;;;;;;;;36.11;32.08;99505.16;5088651;28;1154;-71
2021/06/27 07:22:40;;;;;;;;;;;;;;;36.65;33.51;99504.63;5073113;28;928;-73
2021/06/27 07:25:08;;;;;;;;;;;;;;;37.02;31.53;99511.22;5072193;28;825;-71
2021/06/27 07:27:35;;;;;;;;;;;;;;;36.46;31.92;99499.44;5072951;28;814;-73
2021/06/27 07:30:02;;;;;;;;;;;;;;;36.18;31.13;99492.81;5072856;28;1906;-72
2021/06/27 07:32:29;;;;;;;;;;;;;;;35.21;32.46;99498.16;5072825;28;840;-73
2021/06/27 07:34:55;;;;;;;;;;;;;;;35.32;32.36;99502.69;5088569;28;825;-73
2021/06/27 07:37:22;;;;;;;;;;;;;;;35.25;32.87;99498.53;5072815;28;841;-73
2021/06/27 07:39:49;;;;;;;;;;;;;;;35.92;34.12;99502.84;5072666;28;849;-73
2021/06/27 07:42:15;;;;;;;;;;;;;;;36.31;31.50;99495.38;5088290;28;1295;-71
2021/06/27 07:44:42;;;;;;;;;;;;;;;36.19;32.16;99508.75;5072571;28;903;-73
2021/06/27 07:47:09;;;;;;;;;;;;;;;36.34;31.17;99504.94;5088006;28;1164;-74
2021/06/27 07:49:35;;;;;;;;;;;;;;;36.03;32.18;99498.72;5072523;28;1953;-71
2021/06/27 07:52:02;;;;;;;;;;;;;;;35.49;32.14;99507.75;5072342;28;806;-71
2021/06/27 07:54:28;;;;;;;;;;;;;;;35.15;33.52;99509.13;5072342;28;869;-72
2021/06/27 07:56:55;;;;;;;;;;;;;;;35.03;33.29;99505.88;5072376;28;877;-74
2021/06/27 07:59:21;;;;;;;;;;;;;;;34.68;33.31;99508.53;5087896;28;1353;-72
2021/06/27 08:01:47;;;;;;;;;;;;;;;34.91;33.34;99507.66;5072169;28;851;-73
2021/06/27 08:04:13;;;;;;;;;;;;;;;34.82;34.03;99506.16;5087697;28;1335;-72
2021/06/27 08:06:39;;;;;;;;;;;;;;;34.71;33.93;99509.47;5072188;28;888;-72
2021/06/27 08:09:06;;;;;;;;;;;;;;;34.57;34.34;99520.41;5071930;28;873;-73
2021/06/27 08:11:33;;;;;;;;;;;;;;;34.32;34.01;99514.53;5072033;28;1890;-73
2021/06/27 08:14:02;;;;;;;;;;;;;;;34.50;33.67;99513.34;5071694;28;1361;-73
2021/06/27 08:16:28;;;;;;;;;;;;;;;34.39;32.95;99513.00;5072070;28;856;-71
2021/06/27 08:18:55;;;;;;;;;;;;;;;34.42;35.37;99521.22;5072001;28;920;-73
2021/06/27 08:21:21;;;;;;;;;;;;;;;34.72;33.46;99520.38;5071961;28;877;-72
2021/06/27 08:23:48;;;;;;;;;;;;;;;34.55;33.96;99520.97;5071836;28;814;-74
2021/06/27 08:26:15;;;;;;;;;;;;;;;34.58;34.17;99521.94;5071862;28;819;-73
2021/06/27 08:28:41;;;;;;;;;;;;;;;34.52;34.50;99525.00;5071890;28;864;-73
2021/06/27 08:31:08;;;;;;;;;;;;;;;34.49;34.81;99522.53;5071761;28;1934;-73
2021/06/27 08:33:35;;;;;;;;;;;;;;;34.78;34.81;99525.88;5071820;28;841;-70
2021/06/27 08:36:00;;;;;;;;;;;;;;;34.58;33.86;99528.41;5071671;28;814;-73
2021/06/27 08:38:27;;;;;;;;;;;;;;;34.24;33.61;99531.00;5071707;28;869;-74
2021/06/27 08:40:57;;;;;;;;;;;;;;;34.11;34.44;99531.94;5071604;28;873;-74
2021/06/27 08:43:29;;;;;;;;;;;;;;;34.35;34.89;99536.31;5071581;28;895;-72
2021/06/27 08:45:56;;;;;;;;;;;;;;;34.08;34.91;99533.09;5071608;28;894;-72
2021/06/27 08:48:23;;;;;;;;;;;;;;;34.56;34.76;99528.22;5071836;28;881;-74
2021/06/27 08:50:54;;;;;;;;;;;;;;;35.35;34.02;99533.88;5071527;28;1956;-72
2021/06/27 08:53:21;;;;;;;;;;;;;;;35.15;34.51;99527.09;5071517;28;872;-74
2021/06/27 08:56:04;;;;;;;;;;;;;;;35.16;34.91;99534.38;5071631;28;858;-72
2021/06/27 08:58:34;;;;;;;;;;;;;;;34.82;35.83;99532.00;5071700;28;939;-73
2021/06/27 09:01:02;;;;;;;;;;;;;;;34.81;36.11;99536.22;5087011;28;1221;-73
2021/06/27 09:03:29;;;;;;;;;;;;;;;34.67;35.35;99534.94;5071510;28;821;-72
2021/06/27 09:05:57;;;;;;;;;;;;;;;34.09;36.67;99532.50;5071397;28;905;-72
2021/06/27 09:08:25;;;;;;;;;;;;;;;34.09;36.86;99535.38;5086979;28;1292;-73
2021/06/27 09:10:52;;;;;;;;;;;;;;;33.88;36.74;99529.84;5086809;28;1960;-69
2021/06/27 09:13:36;;;;;;;;;;;;;;;33.20;38.35;99539.06;5071265;28;1355;-73
2021/06/27 09:16:15;;;;;;;;;;;;;;;33.36;37.08;99541.41;5071371;28;837;-71
2021/06/27 09:18:42;;;;;;;;;;;;;;;33.37;39.31;99539.28;5071374;28;825;-74
2021/06/27 09:21:09;;;;;;;;;;;;;;;33.83;38.06;99532.91;5071561;28;871;-74
2021/06/27 09:23:37;;;;;;;;;;;;;;;34.10;37.40;99534.03;5071255;28;830;-74
2021/06/27 09:26:04;;;;;;;;;;;;;;;33.79;36.95;99533.28;5071236;28;818;-73
2021/06/27 09:28:49;;;;;;;;;;;;;;;33.70;38.58;99528.13;5086926;28;1587;-69
2021/06/27 09:31:34;;;;;;;;;;;;;;;32.08;39.59;99541.66;5071104;28;1914;-71
2021/06/27 09:34:02;;;;;;;;;;;;;;;32.13;41.19;99543.63;5071320;28;884;-71
2021/06/27 09:36:29;;;;;;;;;;;;;;;32.76;41.46;99536.97;5071220;28;901;-72
2021/06/27 09:39:13;;;;;;;;;;;;;;;32.96;39.89;99541.06;5071100;28;822;-72
2021/06/27 09:41:50;;;;;;;;;;;;;;;33.17;40.58;99538.13;5071809;28;802;-72
2021/06/27 09:44:17;;;;;;;;;;;;;;;33.59;40.80;99542.81;5071082;28;810;-74
2021/06/27 09:46:51;;;;;;;;;;;;;;;33.99;39.67;99533.66;5071067;28;814;-70
2021/06/27 09:49:19;;;;;;;;;;;;;;;33.83;38.95;99524.31;5074755;28;886;-75
2021/06/27 09:51:52;;;;;;;;;;;;;;;33.01;40.61;99542.22;5090349;28;1949;-74
2021/06/27 09:54:20;;;;;;;;;;;;;;;32.51;43.07;99537.38;5074697;28;903;-72
2021/06/27 09:56:47;;;;;;;;;;;;;;;32.24;42.56;99536.06;5074677;28;742;-71
2021/06/27 09:59:14;;;;;;;;;;;;;;;31.79;42.97;99543.69;5074643;28;839;-74
2021/06/27 10:01:41;;;;;;;;;;;;;;;31.63;43.56;99534.22;5074959;28;821;-74
2021/06/27 10:04:09;;;;;;;;;;;;;;;31.67;44.64;99531.78;5074644;28;857;-74
2021/06/27 10:06:47;;;;;;;;;;;;;;;31.85;43.57;99538.59;5090081;28;1262;-73
2021/06/27 10:09:15;;;;;;;;;;;;;;;31.52;44.40;99531.63;5074234;28;844;-74
2021/06/27 10:12:02;;;;;;;;;;;;;;;31.57;45.14;99529.97;5074273;28;1898;-74
2021/06/27 10:14:33;;;;;;;;;;;;;;;31.43;45.21;99532.09;5074011;28;1233;-74
2021/06/27 10:17:02;;;;;;;;;;;;;;;31.31;45.90;99531.56;5089839;28;1294;-74
2021/06/27 10:19:29;;;;;;;;;;;;;;;31.49;45.64;99533.53;5074469;28;798;-72
2021/06/27 10:21:57;;;;;;;;;;;;;;;31.61;45.74;99528.28;5074430;28;921;-75
2021/06/27 10:24:24;;;;;;;;;;;;;;;31.46;44.61;99534.63;5074308;28;1020;-73
2021/06/27 10:26:51;;;;;;;;;;;;;;;31.29;45.97;99528.50;5074219;28;857;-71
2021/06/27 10:29:19;;;;;;;;;;;;;;;31.49;46.00;99529.88;5074229;28;865;-73
2021/06/27 10:31:46;;;;;;;;;;;;;;;31.62;46.46;99529.84;5074038;28;1979;-71
2021/06/27 10:34:12;;;;;;;;;;;;;;;31.79;45.51;99531.50;5074011;28;879;-74
2021/06/27 10:36:41;;;;;;;;;;;;;;;32.13;44.96;99542.84;5074056;28;885;-73
2021/06/27 10:39:11;;;;;;;;;;;;;;;32.23;45.14;99543.13;5073950;28;877;-71
2021/06/27 10:41:49;;;;;;;;;;;;;;;32.19;44.37;99540.59;5073768;28;854;-74
2021/06/27 10:44:15;;;;;;;;;;;;;;;32.55;43.93;99534.19;5073850;28;795;-71
2021/06/27 10:46:43;;;;;;;;;;;;;;;32.07;44.21;99530.78;5072496;28;1206;-72
2021/06/27 10:49:29;;;;;;;;;;;;;;;31.41;45.78;99534.72;5073662;28;818;-72
2021/06/27 10:52:01;;;;;;;;;;;;;;;31.38;45.23;99528.03;5073588;28;1886;-71
2021/06/27 10:54:30;;;;;;;;;;;;;;;31.21;46.25;99525.56;5074207;28;758;-69
2021/06/27 10:57:03;;;;;;;;;;;;;;;31.46;45.97;99523.19;5073635;28;818;-73
2021/06/27 10:59:39;;;;;;;;;;;;;;;31.07;45.48;99527.69;5072235;28;810;-71
2021/06/27 11:02:22;;;;;;;;;;;;;;;30.67;46.74;99530.59;5073454;28;798;-71
2021/06/27 11:04:50;;;;;;;;;;;;;;;30.96;46.21;99516.53;5073705;28;893;-73
2021/06/27 11:07:36;;;;;;;;;;;;;;;31.31;45.67;99517.31;5073590;28;872;-70
2021/06/27 11:10:20;;;;;;;;;;;;;;;31.64;45.65;99512.13;5073149;28;1927;-71
2021/06/27 11:12:56;;;;;;;;;;;;;;;31.95;45.10;99516.78;5073092;28;1165;-73
2021/06/27 11:15:23;;;;;;;;;;;;;;;32.51;44.51;99510.88;5073257;28;865;-73
2021/06/27 11:17:50;;;;;;;;;;;;;;;33.25;43.19;99512.38;5073036;28;837;-74
2021/06/27 11:20:17;;;;;;;;;;;;;;;33.73;42.34;99498.31;5073082;28;802;-73
2021/06/27 11:22:48;;;;;;;;;;;;;;;33.90;42.85;99500.59;5073043;28;857;-74
2021/06/27 11:25:35;;;;;;;;;;;;;;;33.88;42.79;99506.91;5072915;28;873;-74
2021/06/27 11:28:20;;;;;;;;;;;;;;;33.73;42.82;99501.19;5073079;28;1050;-73
2021/06/27 11:30:54;;;;;;;;;;;;;;;33.20;41.83;99511.19;5071492;28;1961;-72
2021/06/27 11:33:22;;;;;;;;;;;;;;;33.01;42.95;99507.88;5073309;28;897;-71
2021/06/27 11:35:48;;;;;;;;;;;;;;;33.05;42.55;99497.59;5072731;28;817;-72
2021/06/27 11:38:33;;;;;;;;;;;;;;;33.24;42.93;99505.84;5072829;28;798;-69
2021/06/27 11:41:00;;;;;;;;;;;;;;;33.36;42.64;99497.69;5072573;28;857;-72
2021/06/27 11:43:44;;;;;;;;;;;;;;;33.60;42.45;99501.38;5072570;28;872;-73
2021/06/27 11:46:29;;;;;;;;;;;;;;;33.22;42.74;99504.91;5072543;28;826;-71
2021/06/27 11:48:57;;;;;;;;;;;;;;;33.58;42.88;99501.16;5072780;28;822;-73
2021/06/27 11:51:41;;;;;;;;;;;;;;;34.31;42.40;99495.78;5072379;28;1874;-73
2021/06/27 11:54:11;;;;;;;;;;;;;;;34.58;41.54;99487.50;5072334;28;818;-72
2021/06/27 11:56:56;;;;;;;;;;;;;;;34.65;41.69;99492.47;5071022;28;1379;-73
2021/06/27 11:59:27;;;;;;;;;;;;;;;34.26;41.38;99503.25;5072347;28;818;-73
2021/06/27 12:02:09;;;;;;;;;;;;;;;34.27;41.12;99496.19;5072722;28;822;-73
2021/06/27 12:04:41;;;;;;;;;;;;;;;34.27;40.20;99489.69;5072317;28;872;-69
2021/06/27 12:07:26;;;;;;;;;;;;;;;34.10;41.03;99478.81;5072336;28;830;-72
2021/06/27 12:09:53;;;;;;;;;;;;;;;33.97;40.68;99474.81;5071941;28;2338;-70
2021/06/27 12:12:33;;;;;;;;;;;;;;;33.82;41.39;99474.84;5072119;28;939;-72
2021/06/27 12:14:59;;;;;;;;;;;;;;;34.39;40.12;99469.97;5072064;28;1279;-72
2021/06/27 12:17:26;;;;;;;;;;;;;;;34.41;40.67;99476.66;5072354;28;822;-70
2021/06/27 12:19:53;;;;;;;;;;;;;;;34.49;40.24;99470.91;5072770;28;783;-72
2021/06/27 12:22:21;;;;;;;;;;;;;;;34.40;40.28;99471.47;5072187;28;879;-74
2021/06/27 12:24:46;;;;;;;;;;;;;;;34.77;39.74;99482.09;5072408;28;897;-74
2021/06/27 12:27:13;;;;;;;;;;;;;;;35.00;39.38;99486.97;5072294;28;791;-72
2021/06/27 12:29:53;;;;;;;;;;;;;;;35.16;39.11;99479.03;5087765;28;2503;-73
2021/06/27 12:32:20;;;;;;;;;;;;;;;35.52;39.19;99489.31;5071720;28;861;-73
2021/06/27 12:34:49;;;;;;;;;;;;;;;35.32;39.20;99491.19;5071652;28;806;-72
2021/06/27 12:37:16;;;;;;;;;;;;;;;34.20;41.15;99496.97;5071989;28;892;-70
2021/06/27 12:39:43;;;;;;;;;;;;;;;32.58;42.83;99497.97;5071690;28;818;-72
2021/06/27 12:42:15;;;;;;;;;;;;;;;31.37;44.90;99489.38;5071729;28;820;-71
2021/06/27 12:44:42;;;;;;;;;;;;;;;30.42;47.07;99500.78;5071638;28;900;-71
2021/06/27 12:47:09;;;;;;;;;;;;;;;29.94;47.84;99494.94;5070410;28;924;-72
2021/06/27 12:49:37;;;;;;;;;;;;;;;29.74;49.15;99507.69;5071825;28;872;-72
2021/06/27 12:52:04;;;;;;;;;;;;;;;29.59;50.04;99507.41;5072053;28;1945;-72
2021/06/27 12:54:35;;;;;;;;;;;;;;;29.38;50.38;99510.84;5071996;28;781;-71
2021/06/27 12:57:03;;;;;;;;;;;;;;;29.26;51.16;99507.38;5071551;28;842;-71
2021/06/27 12:59:36;;;;;;;;;;;;;;;29.14;51.85;99497.47;5071555;28;802;-71
2021/06/27 13:02:06;;;;;;;;;;;;;;;29.05;52.34;99506.38;5070144;28;1249;-71
2021/06/27 13:04:45;;;;;;;;;;;;;;;29.13;53.11;99501.66;5071394;28;880;-71
2021/06/27 13:07:11;;;;;;;;;;;;;;;29.20;53.78;99508.78;5071732;28;869;-71
2021/06/27 13:09:56;;;;;;;;;;;;;;;29.07;53.93;99510.22;5070067;28;1203;-70
2021/06/27 13:12:23;;;;;;;;;;;;;;;28.96;54.40;99513.22;5071617;28;1021;-70
2021/06/27 13:14:51;;;;;;;;;;;;;;;29.00;54.43;99522.22;5071450;28;1167;-70
2021/06/27 13:17:19;;;;;;;;;;;;;;;29.00;54.72;99519.38;5071743;28;802;-71